sensor_id;sensor_type;location;lat;lon;timestamp;P1;durP1;ratioP1;P2;durP2;ratioP2
21705;SDS011;11014;53.076;18.208;2023-03-01T00:00:53;82.90;;;27.85;;
21705;SDS011;11014;53.076;18.208;2023-03-01T00:03:24;77.70;;;26.20;;
21705;SDS011;11014;53.076;18.208;2023-03-01T00:05:53;76.20;;;26.58;;
21705;SDS011;11014;53.076;18.208;2023-03-01T00:08:22;68.00;;;25.00;;
21705;SDS011;11014;53.076;18.208;2023-03-01T00:11:02;71.25;;;26.83;;
21705;SDS011;11014;53.076;18.208;2023-03-01T00:13:32;69.45;;;25.38;;
21705;SDS011;11014;53.076;18.208;2023-03-01T00:16:07;59.72;;;23.08;;
21705;SDS011;11014;53.076;18.208;2023-03-01T00:18:37;64.60;;;24.90;;
21705;SDS011;11014;53.076;18.208;2023-03-01T00:23:39;51.33;;;20.90;;
21705;SDS011;11014;53.076;18.208;2023-03-01T00:26:09;49.20;;;20.90;;
21705;SDS011;11014;53.076;18.208;2023-03-01T00:28:42;49.95;;;20.08;;
21705;SDS011;11014;53.076;18.208;2023-03-01T00:31:13;51.13;;;21.65;;
21705;SDS011;11014;53.076;18.208;2023-03-01T00:33:44;72.25;;;24.65;;
21705;SDS011;11014;53.076;18.208;2023-03-01T00:36:14;53.60;;;22.10;;
21705;SDS011;11014;53.076;18.208;2023-03-01T00:38:44;52.45;;;20.73;;
21705;SDS011;11014;53.076;18.208;2023-03-01T00:41:37;46.10;;;20.00;;
21705;SDS011;11014;53.076;18.208;2023-03-01T00:44:09;45.38;;;20.67;;
21705;SDS011;11014;53.076;18.208;2023-03-01T00:46:38;55.15;;;20.67;;
21705;SDS011;11014;53.076;18.208;2023-03-01T00:49:10;52.35;;;21.67;;
21705;SDS011;11014;53.076;18.208;2023-03-01T00:51:41;60.72;;;23.35;;
21705;SDS011;11014;53.076;18.208;2023-03-01T00:54:13;56.47;;;23.20;;
21705;SDS011;11014;53.076;18.208;2023-03-01T00:56:41;59.28;;;23.58;;
21705;SDS011;11014;53.076;18.208;2023-03-01T00:59:10;62.80;;;24.15;;
21705;SDS011;11014;53.076;18.208;2023-03-01T01:01:39;65.32;;;25.13;;
21705;SDS011;11014;53.076;18.208;2023-03-01T01:04:09;52.58;;;21.85;;
21705;SDS011;11014;53.076;18.208;2023-03-01T01:09:12;43.53;;;18.95;;
21705;SDS011;11014;53.076;18.208;2023-03-01T01:11:46;60.88;;;21.40;;
21705;SDS011;11014;53.076;18.208;2023-03-01T01:14:18;60.03;;;23.40;;
21705;SDS011;11014;53.076;18.208;2023-03-01T01:16:48;53.53;;;21.40;;
21705;SDS011;11014;53.076;18.208;2023-03-01T01:19:17;55.25;;;23.85;;
21705;SDS011;11014;53.076;18.208;2023-03-01T01:21:46;58.20;;;24.27;;
21705;SDS011;11014;53.076;18.208;2023-03-01T01:24:16;58.30;;;23.60;;
21705;SDS011;11014;53.076;18.208;2023-03-01T01:26:46;53.15;;;23.80;;
21705;SDS011;11014;53.076;18.208;2023-03-01T01:29:18;53.35;;;24.25;;
21705;SDS011;11014;53.076;18.208;2023-03-01T01:34:20;49.95;;;21.00;;
21705;SDS011;11014;53.076;18.208;2023-03-01T01:36:51;47.42;;;21.23;;
21705;SDS011;11014;53.076;18.208;2023-03-01T01:39:25;58.20;;;23.08;;
21705;SDS011;11014;53.076;18.208;2023-03-01T01:41:54;53.75;;;23.77;;
21705;SDS011;11014;53.076;18.208;2023-03-01T01:44:24;50.33;;;23.20;;
21705;SDS011;11014;53.076;18.208;2023-03-01T01:49:42;51.78;;;22.52;;
21705;SDS011;11014;53.076;18.208;2023-03-01T01:52:22;55.42;;;23.55;;
21705;SDS011;11014;53.076;18.208;2023-03-01T01:55:00;51.75;;;23.33;;
21705;SDS011;11014;53.076;18.208;2023-03-01T02:00:31;59.75;;;24.23;;
21705;SDS011;11014;53.076;18.208;2023-03-01T02:03:00;53.05;;;24.55;;
21705;SDS011;11014;53.076;18.208;2023-03-01T02:05:36;59.05;;;22.80;;
21705;SDS011;11014;53.076;18.208;2023-03-01T02:08:11;53.50;;;24.65;;
21705;SDS011;11014;53.076;18.208;2023-03-01T02:10:42;52.55;;;24.65;;
21705;SDS011;11014;53.076;18.208;2023-03-01T02:13:12;54.00;;;24.60;;
21705;SDS011;11014;53.076;18.208;2023-03-01T02:15:41;54.38;;;22.42;;
21705;SDS011;11014;53.076;18.208;2023-03-01T02:18:12;50.35;;;23.25;;
21705;SDS011;11014;53.076;18.208;2023-03-01T02:26:56;50.75;;;23.52;;
21705;SDS011;11014;53.076;18.208;2023-03-01T02:29:26;46.53;;;20.88;;
21705;SDS011;11014;53.076;18.208;2023-03-01T02:31:56;52.33;;;22.05;;
21705;SDS011;11014;53.076;18.208;2023-03-01T02:34:27;50.20;;;21.23;;
21705;SDS011;11014;53.076;18.208;2023-03-01T02:37:01;50.83;;;22.05;;
21705;SDS011;11014;53.076;18.208;2023-03-01T02:39:44;50.38;;;22.08;;
21705;SDS011;11014;53.076;18.208;2023-03-01T02:42:20;48.67;;;21.15;;
21705;SDS011;11014;53.076;18.208;2023-03-01T02:44:54;46.03;;;20.73;;
21705;SDS011;11014;53.076;18.208;2023-03-01T02:47:23;43.08;;;20.40;;
21705;SDS011;11014;53.076;18.208;2023-03-01T02:49:52;48.40;;;21.15;;
21705;SDS011;11014;53.076;18.208;2023-03-01T02:55:34;44.35;;;20.40;;
21705;SDS011;11014;53.076;18.208;2023-03-01T02:58:03;50.50;;;20.40;;
21705;SDS011;11014;53.076;18.208;2023-03-01T03:00:42;43.40;;;19.88;;
21705;SDS011;11014;53.076;18.208;2023-03-01T03:03:17;47.60;;;21.15;;
21705;SDS011;11014;53.076;18.208;2023-03-01T03:08:17;41.63;;;18.27;;
21705;SDS011;11014;53.076;18.208;2023-03-01T03:10:53;46.65;;;21.92;;
21705;SDS011;11014;53.076;18.208;2023-03-01T03:13:25;46.38;;;20.42;;
21705;SDS011;11014;53.076;18.208;2023-03-01T03:16:17;43.80;;;19.65;;
21705;SDS011;11014;53.076;18.208;2023-03-01T03:18:47;47.17;;;20.35;;
21705;SDS011;11014;53.076;18.208;2023-03-01T03:21:16;52.83;;;21.73;;
21705;SDS011;11014;53.076;18.208;2023-03-01T03:23:45;45.88;;;20.55;;
21705;SDS011;11014;53.076;18.208;2023-03-01T03:26:14;44.05;;;21.27;;
21705;SDS011;11014;53.076;18.208;2023-03-01T03:28:43;39.95;;;20.48;;
21705;SDS011;11014;53.076;18.208;2023-03-01T03:31:11;42.92;;;19.58;;
21705;SDS011;11014;53.076;18.208;2023-03-01T03:33:41;41.00;;;19.13;;
21705;SDS011;11014;53.076;18.208;2023-03-01T03:36:17;42.78;;;19.95;;
21705;SDS011;11014;53.076;18.208;2023-03-01T03:38:47;39.97;;;18.17;;
21705;SDS011;11014;53.076;18.208;2023-03-01T03:41:17;39.72;;;18.13;;
21705;SDS011;11014;53.076;18.208;2023-03-01T03:43:46;40.28;;;17.38;;
21705;SDS011;11014;53.076;18.208;2023-03-01T03:46:14;42.25;;;18.45;;
21705;SDS011;11014;53.076;18.208;2023-03-01T03:48:44;35.70;;;17.55;;
21705;SDS011;11014;53.076;18.208;2023-03-01T03:51:14;44.97;;;17.92;;
21705;SDS011;11014;53.076;18.208;2023-03-01T03:53:45;44.67;;;19.52;;
21705;SDS011;11014;53.076;18.208;2023-03-01T03:56:14;39.40;;;17.60;;
21705;SDS011;11014;53.076;18.208;2023-03-01T03:58:46;35.15;;;17.50;;
21705;SDS011;11014;53.076;18.208;2023-03-01T04:01:44;36.03;;;17.52;;
21705;SDS011;11014;53.076;18.208;2023-03-01T04:04:14;37.50;;;18.20;;
21705;SDS011;11014;53.076;18.208;2023-03-01T04:06:45;40.08;;;18.35;;
21705;SDS011;11014;53.076;18.208;2023-03-01T04:09:14;38.13;;;17.60;;
21705;SDS011;11014;53.076;18.208;2023-03-01T04:11:42;36.55;;;17.98;;
21705;SDS011;11014;53.076;18.208;2023-03-01T04:14:14;37.58;;;17.85;;
21705;SDS011;11014;53.076;18.208;2023-03-01T04:16:42;39.33;;;17.95;;
21705;SDS011;11014;53.076;18.208;2023-03-01T04:19:11;37.63;;;18.30;;
21705;SDS011;11014;53.076;18.208;2023-03-01T04:21:40;35.67;;;17.38;;
21705;SDS011;11014;53.076;18.208;2023-03-01T04:24:08;40.42;;;18.58;;
21705;SDS011;11014;53.076;18.208;2023-03-01T04:26:37;37.38;;;18.65;;
21705;SDS011;11014;53.076;18.208;2023-03-01T04:29:06;42.38;;;19.30;;
21705;SDS011;11014;53.076;18.208;2023-03-01T04:31:35;42.30;;;19.42;;
21705;SDS011;11014;53.076;18.208;2023-03-01T04:34:04;42.80;;;19.55;;
21705;SDS011;11014;53.076;18.208;2023-03-01T04:36:32;41.85;;;19.60;;
21705;SDS011;11014;53.076;18.208;2023-03-01T04:39:08;44.83;;;20.75;;
21705;SDS011;11014;53.076;18.208;2023-03-01T04:41:40;39.33;;;18.85;;
21705;SDS011;11014;53.076;18.208;2023-03-01T04:44:11;46.92;;;19.80;;
21705;SDS011;11014;53.076;18.208;2023-03-01T04:46:40;45.97;;;19.75;;
21705;SDS011;11014;53.076;18.208;2023-03-01T04:49:09;40.75;;;19.45;;
21705;SDS011;11014;53.076;18.208;2023-03-01T04:51:38;42.60;;;18.83;;
21705;SDS011;11014;53.076;18.208;2023-03-01T04:54:07;39.80;;;20.30;;
21705;SDS011;11014;53.076;18.208;2023-03-01T04:56:36;42.70;;;18.73;;
21705;SDS011;11014;53.076;18.208;2023-03-01T04:59:05;40.72;;;19.02;;
21705;SDS011;11014;53.076;18.208;2023-03-01T05:01:34;42.67;;;18.35;;
21705;SDS011;11014;53.076;18.208;2023-03-01T05:04:03;37.22;;;17.92;;
21705;SDS011;11014;53.076;18.208;2023-03-01T05:06:33;41.15;;;18.55;;
21705;SDS011;11014;53.076;18.208;2023-03-01T05:09:02;38.28;;;18.38;;
21705;SDS011;11014;53.076;18.208;2023-03-01T05:11:30;45.17;;;19.95;;
21705;SDS011;11014;53.076;18.208;2023-03-01T05:14:07;42.58;;;18.38;;
21705;SDS011;11014;53.076;18.208;2023-03-01T05:16:36;42.95;;;20.25;;
21705;SDS011;11014;53.076;18.208;2023-03-01T05:19:05;39.13;;;18.38;;
21705;SDS011;11014;53.076;18.208;2023-03-01T05:21:39;42.75;;;18.42;;
21705;SDS011;11014;53.076;18.208;2023-03-01T05:24:28;42.22;;;19.95;;
21705;SDS011;11014;53.076;18.208;2023-03-01T05:27:06;37.75;;;18.73;;
21705;SDS011;11014;53.076;18.208;2023-03-01T05:29:34;37.88;;;18.27;;
21705;SDS011;11014;53.076;18.208;2023-03-01T05:32:03;41.38;;;19.40;;
21705;SDS011;11014;53.076;18.208;2023-03-01T05:34:33;41.80;;;18.90;;
21705;SDS011;11014;53.076;18.208;2023-03-01T05:37:03;39.90;;;19.10;;
21705;SDS011;11014;53.076;18.208;2023-03-01T05:39:33;42.97;;;19.63;;
21705;SDS011;11014;53.076;18.208;2023-03-01T05:42:02;50.97;;;22.15;;
21705;SDS011;11014;53.076;18.208;2023-03-01T05:44:36;51.92;;;21.52;;
21705;SDS011;11014;53.076;18.208;2023-03-01T05:47:04;47.95;;;20.98;;
21705;SDS011;11014;53.076;18.208;2023-03-01T05:49:33;49.33;;;20.42;;
21705;SDS011;11014;53.076;18.208;2023-03-01T05:52:01;47.00;;;21.50;;
21705;SDS011;11014;53.076;18.208;2023-03-01T05:54:30;47.88;;;21.27;;
21705;SDS011;11014;53.076;18.208;2023-03-01T05:56:58;48.20;;;20.52;;
21705;SDS011;11014;53.076;18.208;2023-03-01T05:59:27;50.45;;;23.67;;
21705;SDS011;11014;53.076;18.208;2023-03-01T06:01:55;51.15;;;23.25;;
21705;SDS011;11014;53.076;18.208;2023-03-01T06:04:24;49.78;;;22.27;;
21705;SDS011;11014;53.076;18.208;2023-03-01T06:06:52;46.80;;;21.38;;
21705;SDS011;11014;53.076;18.208;2023-03-01T06:09:21;47.72;;;22.50;;
21705;SDS011;11014;53.076;18.208;2023-03-01T06:11:49;49.05;;;22.15;;
21705;SDS011;11014;53.076;18.208;2023-03-01T06:14:18;48.70;;;22.63;;
21705;SDS011;11014;53.076;18.208;2023-03-01T06:16:46;45.47;;;21.80;;
21705;SDS011;11014;53.076;18.208;2023-03-01T06:19:15;53.42;;;23.88;;
21705;SDS011;11014;53.076;18.208;2023-03-01T06:21:43;64.00;;;25.50;;
21705;SDS011;11014;53.076;18.208;2023-03-01T06:24:12;54.67;;;23.75;;
21705;SDS011;11014;53.076;18.208;2023-03-01T06:26:40;51.65;;;22.30;;
21705;SDS011;11014;53.076;18.208;2023-03-01T06:29:16;44.55;;;21.60;;
21705;SDS011;11014;53.076;18.208;2023-03-01T06:31:44;40.35;;;19.73;;
21705;SDS011;11014;53.076;18.208;2023-03-01T06:34:14;39.20;;;19.55;;
21705;SDS011;11014;53.076;18.208;2023-03-01T06:36:42;37.60;;;19.05;;
21705;SDS011;11014;53.076;18.208;2023-03-01T06:39:11;43.83;;;18.80;;
21705;SDS011;11014;53.076;18.208;2023-03-01T06:41:39;35.30;;;17.92;;
21705;SDS011;11014;53.076;18.208;2023-03-01T06:44:08;40.35;;;18.00;;
21705;SDS011;11014;53.076;18.208;2023-03-01T06:46:36;37.13;;;18.88;;
21705;SDS011;11014;53.076;18.208;2023-03-01T06:49:05;33.30;;;17.92;;
21705;SDS011;11014;53.076;18.208;2023-03-01T06:51:37;38.25;;;17.25;;
21705;SDS011;11014;53.076;18.208;2023-03-01T06:54:05;42.55;;;19.23;;
21705;SDS011;11014;53.076;18.208;2023-03-01T06:56:34;37.53;;;18.27;;
21705;SDS011;11014;53.076;18.208;2023-03-01T06:59:02;41.17;;;19.80;;
21705;SDS011;11014;53.076;18.208;2023-03-01T07:01:33;40.60;;;18.95;;
21705;SDS011;11014;53.076;18.208;2023-03-01T07:04:01;39.50;;;19.60;;
21705;SDS011;11014;53.076;18.208;2023-03-01T07:06:30;37.47;;;18.58;;
21705;SDS011;11014;53.076;18.208;2023-03-01T07:08:59;36.60;;;17.92;;
21705;SDS011;11014;53.076;18.208;2023-03-01T07:11:27;39.22;;;18.98;;
21705;SDS011;11014;53.076;18.208;2023-03-01T07:13:56;38.90;;;19.25;;
21705;SDS011;11014;53.076;18.208;2023-03-01T07:16:26;40.85;;;20.45;;
21705;SDS011;11014;53.076;18.208;2023-03-01T07:18:55;41.50;;;20.08;;
21705;SDS011;11014;53.076;18.208;2023-03-01T07:21:24;39.50;;;18.60;;
21705;SDS011;11014;53.076;18.208;2023-03-01T07:23:53;42.65;;;17.98;;
21705;SDS011;11014;53.076;18.208;2023-03-01T07:26:21;36.35;;;17.77;;
21705;SDS011;11014;53.076;18.208;2023-03-01T07:28:53;37.72;;;19.40;;
21705;SDS011;11014;53.076;18.208;2023-03-01T07:31:21;32.30;;;15.63;;
21705;SDS011;11014;53.076;18.208;2023-03-01T07:33:50;35.35;;;18.38;;
21705;SDS011;11014;53.076;18.208;2023-03-01T07:36:18;35.10;;;16.35;;
21705;SDS011;11014;53.076;18.208;2023-03-01T07:38:47;32.63;;;16.80;;
21705;SDS011;11014;53.076;18.208;2023-03-01T07:41:23;36.50;;;16.20;;
21705;SDS011;11014;53.076;18.208;2023-03-01T07:44:11;33.33;;;16.48;;
21705;SDS011;11014;53.076;18.208;2023-03-01T07:46:39;29.38;;;15.93;;
21705;SDS011;11014;53.076;18.208;2023-03-01T07:49:08;30.80;;;16.95;;
21705;SDS011;11014;53.076;18.208;2023-03-01T08:13:17;28.02;;;15.20;;
21705;SDS011;11014;53.076;18.208;2023-03-01T08:15:51;29.48;;;15.20;;
21705;SDS011;11014;53.076;18.208;2023-03-01T08:18:20;27.35;;;13.75;;
21705;SDS011;11014;53.076;18.208;2023-03-01T08:20:49;25.38;;;13.30;;
21705;SDS011;11014;53.076;18.208;2023-03-01T08:23:17;27.23;;;13.15;;
21705;SDS011;11014;53.076;18.208;2023-03-01T08:25:46;26.08;;;14.05;;
21705;SDS011;11014;53.076;18.208;2023-03-01T08:28:14;26.25;;;12.85;;
21705;SDS011;11014;53.076;18.208;2023-03-01T08:30:42;26.48;;;14.20;;
21705;SDS011;11014;53.076;18.208;2023-03-01T08:33:11;25.63;;;13.30;;
21705;SDS011;11014;53.076;18.208;2023-03-01T08:35:39;24.85;;;12.77;;
21705;SDS011;11014;53.076;18.208;2023-03-01T08:38:08;23.25;;;13.80;;
21705;SDS011;11014;53.076;18.208;2023-03-01T08:40:36;32.38;;;14.30;;
21705;SDS011;11014;53.076;18.208;2023-03-01T08:43:05;20.98;;;11.15;;
21705;SDS011;11014;53.076;18.208;2023-03-01T08:45:33;26.17;;;11.93;;
21705;SDS011;11014;53.076;18.208;2023-03-01T08:48:02;27.33;;;14.88;;
21705;SDS011;11014;53.076;18.208;2023-03-01T08:50:30;28.98;;;13.50;;
21705;SDS011;11014;53.076;18.208;2023-03-01T08:52:59;32.28;;;16.90;;
21705;SDS011;11014;53.076;18.208;2023-03-01T08:55:28;29.05;;;15.43;;
21705;SDS011;11014;53.076;18.208;2023-03-01T08:57:57;29.58;;;14.38;;
21705;SDS011;11014;53.076;18.208;2023-03-01T09:00:27;28.15;;;15.50;;
21705;SDS011;11014;53.076;18.208;2023-03-01T09:02:55;31.08;;;14.85;;
21705;SDS011;11014;53.076;18.208;2023-03-01T09:05:24;27.27;;;14.05;;
21705;SDS011;11014;53.076;18.208;2023-03-01T09:07:52;28.70;;;15.23;;
21705;SDS011;11014;53.076;18.208;2023-03-01T09:10:21;31.10;;;16.50;;
21705;SDS011;11014;53.076;18.208;2023-03-01T09:12:49;29.70;;;15.02;;
21705;SDS011;11014;53.076;18.208;2023-03-01T09:15:19;31.15;;;15.93;;
21705;SDS011;11014;53.076;18.208;2023-03-01T09:17:47;29.45;;;16.50;;
21705;SDS011;11014;53.076;18.208;2023-03-01T09:20:23;27.55;;;16.17;;
21705;SDS011;11014;53.076;18.208;2023-03-01T09:22:51;27.50;;;14.80;;
21705;SDS011;11014;53.076;18.208;2023-03-01T09:25:20;30.88;;;15.68;;
21705;SDS011;11014;53.076;18.208;2023-03-01T09:27:53;30.33;;;15.63;;
21705;SDS011;11014;53.076;18.208;2023-03-01T09:30:22;26.48;;;15.10;;
21705;SDS011;11014;53.076;18.208;2023-03-01T09:32:51;30.50;;;15.13;;
21705;SDS011;11014;53.076;18.208;2023-03-01T09:35:20;28.77;;;16.35;;
21705;SDS011;11014;53.076;18.208;2023-03-01T09:37:50;28.73;;;15.07;;
21705;SDS011;11014;53.076;18.208;2023-03-01T09:40:20;29.67;;;16.08;;
21705;SDS011;11014;53.076;18.208;2023-03-01T09:43:05;28.25;;;15.90;;
21705;SDS011;11014;53.076;18.208;2023-03-01T09:45:43;34.22;;;18.27;;
21705;SDS011;11014;53.076;18.208;2023-03-01T09:48:19;32.63;;;16.77;;
21705;SDS011;11014;53.076;18.208;2023-03-01T09:50:53;34.40;;;17.20;;
21705;SDS011;11014;53.076;18.208;2023-03-01T09:53:22;33.08;;;18.65;;
21705;SDS011;11014;53.076;18.208;2023-03-01T09:56:00;32.50;;;17.42;;
21705;SDS011;11014;53.076;18.208;2023-03-01T09:58:41;28.92;;;14.48;;
21705;SDS011;11014;53.076;18.208;2023-03-01T10:01:23;33.97;;;16.75;;
21705;SDS011;11014;53.076;18.208;2023-03-01T10:06:59;31.27;;;16.63;;
21705;SDS011;11014;53.076;18.208;2023-03-01T10:09:49;27.65;;;14.20;;
21705;SDS011;11014;53.076;18.208;2023-03-01T10:12:19;29.73;;;13.95;;
21705;SDS011;11014;53.076;18.208;2023-03-01T10:14:54;29.35;;;14.40;;
21705;SDS011;11014;53.076;18.208;2023-03-01T10:17:36;27.02;;;14.20;;
21705;SDS011;11014;53.076;18.208;2023-03-01T10:23:10;32.95;;;14.52;;
21705;SDS011;11014;53.076;18.208;2023-03-01T10:30:57;21.98;;;12.48;;
21705;SDS011;11014;53.076;18.208;2023-03-01T10:33:29;25.73;;;14.98;;
21705;SDS011;11014;53.076;18.208;2023-03-01T10:36:00;27.60;;;13.20;;
21705;SDS011;11014;53.076;18.208;2023-03-01T10:38:30;24.58;;;14.02;;
21705;SDS011;11014;53.076;18.208;2023-03-01T10:41:14;14.57;;;8.65;;
21705;SDS011;11014;53.076;18.208;2023-03-01T10:43:54;27.67;;;13.93;;
21705;SDS011;11014;53.076;18.208;2023-03-01T10:46:26;23.85;;;13.65;;
21705;SDS011;11014;53.076;18.208;2023-03-01T10:51:44;24.60;;;12.40;;
21705;SDS011;11014;53.076;18.208;2023-03-01T10:54:16;26.85;;;11.65;;
21705;SDS011;11014;53.076;18.208;2023-03-01T10:56:59;22.00;;;11.60;;
21705;SDS011;11014;53.076;18.208;2023-03-01T10:59:34;20.55;;;11.55;;
21705;SDS011;11014;53.076;18.208;2023-03-01T11:02:17;17.45;;;10.68;;
21705;SDS011;11014;53.076;18.208;2023-03-01T11:05:02;19.55;;;12.27;;
21705;SDS011;11014;53.076;18.208;2023-03-01T11:07:46;15.90;;;9.93;;
21705;SDS011;11014;53.076;18.208;2023-03-01T11:10:29;17.00;;;9.77;;
21705;SDS011;11014;53.076;18.208;2023-03-01T11:13:13;18.75;;;10.43;;
21705;SDS011;11014;53.076;18.208;2023-03-01T11:18:34;18.80;;;10.70;;
21705;SDS011;11014;53.076;18.208;2023-03-01T11:21:15;22.02;;;10.82;;
21705;SDS011;11014;53.076;18.208;2023-03-01T11:23:44;19.63;;;10.52;;
21705;SDS011;11014;53.076;18.208;2023-03-01T11:26:14;16.33;;;9.70;;
21705;SDS011;11014;53.076;18.208;2023-03-01T11:28:46;19.60;;;9.63;;
21705;SDS011;11014;53.076;18.208;2023-03-01T11:31:19;18.80;;;10.75;;
21705;SDS011;11014;53.076;18.208;2023-03-01T11:36:47;14.77;;;8.77;;
21705;SDS011;11014;53.076;18.208;2023-03-01T11:42:06;20.42;;;10.00;;
21705;SDS011;11014;53.076;18.208;2023-03-01T11:44:47;16.17;;;9.40;;
21705;SDS011;11014;53.076;18.208;2023-03-01T11:47:22;13.35;;;7.55;;
21705;SDS011;11014;53.076;18.208;2023-03-01T11:50:09;15.27;;;7.55;;
21705;SDS011;11014;53.076;18.208;2023-03-01T11:53:13;12.00;;;6.55;;
21705;SDS011;11014;53.076;18.208;2023-03-01T11:56:07;16.73;;;8.25;;
21705;SDS011;11014;53.076;18.208;2023-03-01T12:02:10;15.10;;;9.05;;
21705;SDS011;11014;53.076;18.208;2023-03-01T12:04:54;11.45;;;6.55;;
21705;SDS011;11014;53.076;18.208;2023-03-01T12:07:49;16.52;;;8.07;;
21705;SDS011;11014;53.076;18.208;2023-03-01T12:10:27;13.77;;;7.88;;
21705;SDS011;11014;53.076;18.208;2023-03-01T12:13:20;12.10;;;7.20;;
21705;SDS011;11014;53.076;18.208;2023-03-01T12:16:02;16.17;;;9.02;;
21705;SDS011;11014;53.076;18.208;2023-03-01T12:27:06;15.63;;;9.48;;
21705;SDS011;11014;53.076;18.208;2023-03-01T12:29:57;15.02;;;9.63;;
21705;SDS011;11014;53.076;18.208;2023-03-01T12:32:52;15.55;;;8.85;;
21705;SDS011;11014;53.076;18.208;2023-03-01T12:41:45;15.70;;;9.70;;
21705;SDS011;11014;53.076;18.208;2023-03-01T12:50:10;16.50;;;9.40;;
21705;SDS011;11014;53.076;18.208;2023-03-01T12:52:51;15.30;;;9.10;;
21705;SDS011;11014;53.076;18.208;2023-03-01T12:55:31;12.32;;;7.65;;
21705;SDS011;11014;53.076;18.208;2023-03-01T12:58:07;12.85;;;8.40;;
21705;SDS011;11014;53.076;18.208;2023-03-01T13:00:44;14.50;;;7.97;;
21705;SDS011;11014;53.076;18.208;2023-03-01T13:03:33;11.20;;;8.10;;
21705;SDS011;11014;53.076;18.208;2023-03-01T13:09:02;11.77;;;7.72;;
21705;SDS011;11014;53.076;18.208;2023-03-01T13:11:49;14.90;;;8.80;;
21705;SDS011;11014;53.076;18.208;2023-03-01T13:16:54;12.57;;;8.95;;
21705;SDS011;11014;53.076;18.208;2023-03-01T13:19:24;14.75;;;9.38;;
21705;SDS011;11014;53.076;18.208;2023-03-01T13:21:55;13.13;;;9.52;;
21705;SDS011;11014;53.076;18.208;2023-03-01T13:24:27;15.20;;;9.35;;
21705;SDS011;11014;53.076;18.208;2023-03-01T13:29:48;12.93;;;9.18;;
21705;SDS011;11014;53.076;18.208;2023-03-01T13:32:24;15.15;;;9.38;;
21705;SDS011;11014;53.076;18.208;2023-03-01T13:37:45;14.00;;;9.55;;
21705;SDS011;11014;53.076;18.208;2023-03-01T13:42:54;15.38;;;9.63;;
21705;SDS011;11014;53.076;18.208;2023-03-01T13:45:36;16.30;;;9.77;;
21705;SDS011;11014;53.076;18.208;2023-03-01T13:48:25;14.05;;;9.52;;
21705;SDS011;11014;53.076;18.208;2023-03-01T13:51:00;14.68;;;8.75;;
21705;SDS011;11014;53.076;18.208;2023-03-01T13:53:36;13.00;;;8.88;;
21705;SDS011;11014;53.076;18.208;2023-03-01T13:56:19;14.15;;;9.82;;
21705;SDS011;11014;53.076;18.208;2023-03-01T13:58:53;16.30;;;10.00;;
21705;SDS011;11014;53.076;18.208;2023-03-01T14:01:30;32.72;;;22.52;;
21705;SDS011;11014;53.076;18.208;2023-03-01T14:04:02;30.75;;;18.95;;
21705;SDS011;11014;53.076;18.208;2023-03-01T14:06:45;15.13;;;10.40;;
21705;SDS011;11014;53.076;18.208;2023-03-01T14:09:21;18.73;;;12.38;;
21705;SDS011;11014;53.076;18.208;2023-03-01T14:12:04;13.85;;;9.93;;
21705;SDS011;11014;53.076;18.208;2023-03-01T14:17:47;15.68;;;10.15;;
21705;SDS011;11014;53.076;18.208;2023-03-01T14:20:48;17.35;;;9.98;;
21705;SDS011;11014;53.076;18.208;2023-03-01T14:25:51;22.95;;;15.02;;
21705;SDS011;11014;53.076;18.208;2023-03-01T14:28:31;25.65;;;14.38;;
21705;SDS011;11014;53.076;18.208;2023-03-01T14:34:20;38.00;;;21.27;;
21705;SDS011;11014;53.076;18.208;2023-03-01T14:36:51;22.52;;;12.95;;
21705;SDS011;11014;53.076;18.208;2023-03-01T14:39:23;13.10;;;8.63;;
21705;SDS011;11014;53.076;18.208;2023-03-01T14:41:54;41.70;;;24.08;;
21705;SDS011;11014;53.076;18.208;2023-03-01T14:44:25;15.20;;;9.95;;
21705;SDS011;11014;53.076;18.208;2023-03-01T14:46:54;23.83;;;16.02;;
21705;SDS011;11014;53.076;18.208;2023-03-01T14:49:26;69.85;;;37.45;;
21705;SDS011;11014;53.076;18.208;2023-03-01T14:52:03;25.42;;;16.38;;
21705;SDS011;11014;53.076;18.208;2023-03-01T14:59:46;18.00;;;10.38;;
21705;SDS011;11014;53.076;18.208;2023-03-01T15:02:17;13.57;;;9.63;;
21705;SDS011;11014;53.076;18.208;2023-03-01T15:05:05;30.15;;;16.30;;
21705;SDS011;11014;53.076;18.208;2023-03-01T15:07:38;29.98;;;17.58;;
21705;SDS011;11014;53.076;18.208;2023-03-01T15:12:44;17.63;;;10.80;;
21705;SDS011;11014;53.076;18.208;2023-03-01T15:15:26;22.38;;;13.73;;
21705;SDS011;11014;53.076;18.208;2023-03-01T15:18:01;15.85;;;10.80;;
21705;SDS011;11014;53.076;18.208;2023-03-01T15:23:04;14.25;;;10.15;;
21705;SDS011;11014;53.076;18.208;2023-03-01T15:25:33;16.13;;;10.70;;
21705;SDS011;11014;53.076;18.208;2023-03-01T15:28:02;18.10;;;10.85;;
21705;SDS011;11014;53.076;18.208;2023-03-01T15:30:32;22.38;;;10.60;;
21705;SDS011;11014;53.076;18.208;2023-03-01T15:33:19;18.67;;;11.38;;
21705;SDS011;11014;53.076;18.208;2023-03-01T15:36:00;20.45;;;11.50;;
21705;SDS011;11014;53.076;18.208;2023-03-01T15:38:51;18.23;;;10.73;;
21705;SDS011;11014;53.076;18.208;2023-03-01T15:41:23;20.13;;;10.85;;
21705;SDS011;11014;53.076;18.208;2023-03-01T15:43:59;18.42;;;11.55;;
21705;SDS011;11014;53.076;18.208;2023-03-01T15:46:44;19.52;;;11.82;;
21705;SDS011;11014;53.076;18.208;2023-03-01T15:49:58;33.97;;;19.60;;
21705;SDS011;11014;53.076;18.208;2023-03-01T15:52:23;23.80;;;15.80;;
21705;SDS011;11014;53.076;18.208;2023-03-01T15:55:04;20.85;;;12.13;;
21705;SDS011;11014;53.076;18.208;2023-03-01T15:57:34;73.03;;;35.97;;
21705;SDS011;11014;53.076;18.208;2023-03-01T16:00:03;37.45;;;20.67;;
21705;SDS011;11014;53.076;18.208;2023-03-01T16:02:39;23.50;;;12.70;;
21705;SDS011;11014;53.076;18.208;2023-03-01T16:05:20;17.63;;;11.38;;
21705;SDS011;11014;53.076;18.208;2023-03-01T16:07:51;34.33;;;20.95;;
21705;SDS011;11014;53.076;18.208;2023-03-01T16:10:20;42.45;;;26.52;;
21705;SDS011;11014;53.076;18.208;2023-03-01T16:12:49;19.88;;;11.85;;
21705;SDS011;11014;53.076;18.208;2023-03-01T16:15:22;19.17;;;11.00;;
21705;SDS011;11014;53.076;18.208;2023-03-01T16:17:52;20.15;;;11.80;;
21705;SDS011;11014;53.076;18.208;2023-03-01T16:20:24;18.60;;;11.77;;
21705;SDS011;11014;53.076;18.208;2023-03-01T16:22:57;52.70;;;29.25;;
21705;SDS011;11014;53.076;18.208;2023-03-01T16:25:28;44.85;;;23.45;;
21705;SDS011;11014;53.076;18.208;2023-03-01T16:27:58;40.55;;;21.10;;
21705;SDS011;11014;53.076;18.208;2023-03-01T16:30:29;36.72;;;20.15;;
21705;SDS011;11014;53.076;18.208;2023-03-01T16:32:57;32.47;;;18.80;;
21705;SDS011;11014;53.076;18.208;2023-03-01T16:35:26;45.05;;;23.80;;
21705;SDS011;11014;53.076;18.208;2023-03-01T16:37:55;33.67;;;20.05;;
21705;SDS011;11014;53.076;18.208;2023-03-01T16:40:25;30.45;;;17.60;;
21705;SDS011;11014;53.076;18.208;2023-03-01T16:42:56;33.90;;;17.17;;
21705;SDS011;11014;53.076;18.208;2023-03-01T16:45:32;29.55;;;16.25;;
21705;SDS011;11014;53.076;18.208;2023-03-01T16:48:07;23.23;;;15.05;;
21705;SDS011;11014;53.076;18.208;2023-03-01T16:50:36;26.65;;;13.85;;